createdAt,value
2019-05-19T00:01:56.901Z,69.97
2019-05-19T00:04:26.323Z,69.96
2019-05-19T00:06:55.735Z,70.52
2019-05-19T00:09:25.098Z,70.49
2019-05-19T00:11:54.554Z,70.61
2019-05-19T00:14:23.925Z,71.14
2019-05-19T00:16:53.630Z,71.39
2019-05-19T00:19:27.022Z,70.85
2019-05-19T00:21:56.138Z,71.05
2019-05-19T00:24:25.615Z,71.38
2019-05-19T00:26:55.104Z,71.53
2019-05-19T00:29:24.526Z,71.63
2019-05-19T00:31:53.871Z,71.96
2019-05-19T00:34:23.338Z,71.46
2019-05-19T00:36:52.746Z,71.91
2019-05-19T00:39:22.178Z,71.94
2019-05-19T00:41:51.545Z,71.73
2019-05-19T00:44:20.932Z,71.71
2019-05-19T00:46:50.296Z,71.63
2019-05-19T00:49:19.710Z,72.13
2019-05-19T00:51:49.095Z,71.98
2019-05-19T00:54:18.490Z,72.16
2019-05-19T00:56:48.445Z,72.89
2019-05-19T00:59:18.863Z,73.21
2019-05-19T01:01:48.289Z,73.15
2019-05-19T01:04:17.845Z,73.58
2019-05-19T01:06:47.406Z,72.96
2019-05-19T01:09:16.807Z,73.25
2019-05-19T01:11:46.217Z,73.42
2019-05-19T01:14:15.635Z,73.00
2019-05-19T01:16:45.012Z,73.04
2019-05-19T01:19:14.373Z,72.53
2019-05-19T01:21:44.739Z,73.40
2019-05-19T01:24:14.090Z,73.76
2019-05-19T01:26:43.607Z,73.87
2019-05-19T01:29:12.986Z,73.99
2019-05-19T01:31:42.386Z,74.24
2019-05-19T01:34:11.830Z,74.23
2019-05-19T01:36:41.183Z,74.32
2019-05-19T01:39:10.568Z,74.57
2019-05-19T01:41:39.980Z,74.71
2019-05-19T01:44:09.454Z,74.82
2019-05-19T01:46:38.836Z,75.10
2019-05-19T01:49:08.238Z,75.32
2019-05-19T01:51:37.605Z,75.52
2019-05-19T01:54:07.022Z,75.75
2019-05-19T01:56:36.517Z,76.23
2019-05-19T01:59:06.077Z,76.23
2019-05-19T02:01:35.540Z,76.11
2019-05-19T02:04:04.936Z,76.25
2019-05-19T02:06:34.318Z,76.37
2019-05-19T02:09:04.955Z,76.49
2019-05-19T02:11:34.494Z,76.62
2019-05-19T02:14:03.908Z,76.87
2019-05-19T02:16:33.330Z,77.15
2019-05-19T02:19:02.835Z,77.34
2019-05-19T02:21:32.323Z,77.67
2019-05-19T02:24:01.823Z,77.40
2019-05-19T02:26:31.235Z,77.29
2019-05-19T02:29:00.841Z,77.58
2019-05-19T02:31:30.233Z,77.56
2019-05-19T02:33:59.598Z,77.40
2019-05-19T02:36:29.120Z,77.36
2019-05-19T02:38:58.507Z,77.57
2019-05-19T02:41:30.139Z,77.52
2019-05-19T02:44:01.288Z,77.78
2019-05-19T02:46:31.582Z,77.49
2019-05-19T02:49:02.470Z,77.79
2019-05-19T02:51:34.170Z,77.57
2019-05-19T02:54:06.148Z,77.84
2019-05-19T02:56:36.587Z,77.66
2019-05-19T02:59:06.878Z,77.79
2019-05-19T03:01:37.923Z,77.80
2019-05-19T03:04:07.294Z,77.53
2019-05-19T03:06:36.702Z,77.86
2019-05-19T03:09:06.908Z,78.34
2019-05-19T03:11:36.285Z,78.22
2019-05-19T03:14:05.710Z,78.35
2019-05-19T03:16:35.172Z,78.33
2019-05-19T03:19:04.590Z,78.21
2019-05-19T03:21:33.956Z,78.32
2019-05-19T03:24:03.405Z,78.46
2019-05-19T03:26:32.789Z,78.25
2019-05-19T03:29:02.256Z,78.16
2019-05-19T03:31:38.859Z,78.32
2019-05-19T03:34:08.236Z,78.14
2019-05-19T03:36:37.613Z,78.63
2019-05-19T03:39:07.710Z,78.67
2019-05-19T03:41:37.120Z,78.70
2019-05-19T03:44:06.488Z,78.71
2019-05-19T03:46:35.883Z,78.71
2019-05-19T03:49:05.261Z,78.83
2019-05-19T03:51:34.651Z,78.88
2019-05-19T03:54:04.029Z,78.92
2019-05-19T03:56:33.417Z,78.54
2019-05-19T03:59:02.812Z,78.45
2019-05-19T04:01:32.187Z,78.42
2019-05-19T04:04:01.598Z,78.07
2019-05-19T04:06:30.980Z,78.17
2019-05-19T04:09:00.400Z,77.95
2019-05-19T04:11:29.774Z,77.91
2019-05-19T04:13:59.223Z,77.72
2019-05-19T04:16:28.685Z,77.41
2019-05-19T04:18:58.073Z,77.28
2019-05-19T04:21:27.430Z,77.14
2019-05-19T04:23:56.898Z,77.11
2019-05-19T04:26:26.272Z,77.03
2019-05-19T04:28:55.686Z,76.77
2019-05-19T04:31:25.141Z,76.96
2019-05-19T04:33:54.514Z,76.68
2019-05-19T04:36:23.913Z,76.54
2019-05-19T04:38:53.422Z,76.92
2019-05-19T04:41:22.816Z,76.69
2019-05-19T04:43:52.331Z,76.73
2019-05-19T04:46:21.701Z,76.61
2019-05-19T04:48:51.075Z,76.46
2019-05-19T04:51:20.545Z,76.28
2019-05-19T04:53:49.859Z,76.34
2019-05-19T04:56:19.959Z,76.31
2019-05-19T04:58:49.714Z,76.35
2019-05-19T05:01:19.095Z,76.09
2019-05-19T05:03:48.592Z,76.09
2019-05-19T05:06:18.011Z,76.18
2019-05-19T05:08:47.667Z,76.49
2019-05-19T05:11:17.045Z,76.57
2019-05-19T05:13:46.448Z,76.36
2019-05-19T05:16:15.851Z,76.13
2019-05-19T05:18:47.822Z,76.09
2019-05-19T05:21:16.388Z,75.78
2019-05-19T05:23:45.845Z,75.81
2019-05-19T05:26:15.260Z,75.80
2019-05-19T05:28:44.693Z,75.56
2019-05-19T05:31:15.608Z,75.35
2019-05-19T05:33:45.443Z,75.17
2019-05-19T05:36:15.178Z,75.33
2019-05-19T05:38:44.570Z,74.91
2019-05-19T05:41:13.958Z,74.63
2019-05-19T05:43:43.361Z,74.31
2019-05-19T05:46:12.769Z,74.21
2019-05-19T05:48:42.167Z,73.76
2019-05-19T05:51:11.576Z,73.68
2019-05-19T05:53:40.966Z,73.80
2019-05-19T05:56:10.362Z,73.35
2019-05-19T05:58:39.792Z,73.47
2019-05-19T06:01:09.211Z,73.15
2019-05-19T06:03:38.587Z,72.83
2019-05-19T06:06:08.295Z,72.49
2019-05-19T06:08:37.666Z,72.09
2019-05-19T06:11:07.080Z,71.85
2019-05-19T06:13:36.457Z,71.27
2019-05-19T06:16:05.856Z,70.96
2019-05-19T06:18:35.436Z,70.73
2019-05-19T06:21:04.800Z,70.28
2019-05-19T06:23:34.204Z,70.25
2019-05-19T06:26:03.600Z,70.05
2019-05-19T06:28:33.024Z,69.71
2019-05-19T06:31:02.508Z,69.90
2019-05-19T06:33:31.906Z,69.79
2019-05-19T06:36:01.603Z,69.76
2019-05-19T06:38:31.048Z,68.95
2019-05-19T06:41:00.439Z,68.45
2019-05-19T06:43:29.842Z,68.22
2019-05-19T06:45:59.215Z,68.00
2019-05-19T06:48:28.627Z,67.61
2019-05-19T06:50:58.026Z,67.60
2019-05-19T06:53:27.405Z,67.82
2019-05-19T06:55:57.011Z,67.59
2019-05-19T06:58:26.405Z,67.31
2019-05-19T07:00:59.019Z,66.72
2019-05-19T07:03:27.003Z,66.27
2019-05-19T07:05:56.397Z,65.26
2019-05-19T07:08:25.791Z,64.31
2019-05-19T07:10:55.192Z,63.57
2019-05-19T07:13:24.560Z,62.99
2019-05-19T07:15:54.059Z,62.92
2019-05-19T07:18:23.535Z,62.44
2019-05-19T07:20:52.917Z,61.58
2019-05-19T07:23:28.425Z,61.95
2019-05-19T07:25:53.475Z,61.49
2019-05-19T07:28:22.894Z,61.34
2019-05-19T07:30:52.280Z,61.20
2019-05-19T07:33:21.683Z,60.77
2019-05-19T07:35:51.100Z,60.82
2019-05-19T07:38:20.514Z,60.22
2019-05-19T07:40:49.946Z,58.90
2019-05-19T07:43:19.381Z,58.77
2019-05-19T07:45:48.761Z,58.38
2019-05-19T07:48:18.162Z,58.12
2019-05-19T07:50:47.688Z,57.81
2019-05-19T07:53:17.217Z,57.41
2019-05-19T07:55:46.626Z,57.71
2019-05-19T07:58:16.040Z,56.10
2019-05-19T08:00:45.589Z,57.89
2019-05-19T08:03:15.006Z,58.12
2019-05-19T08:05:44.553Z,58.30
2019-05-19T08:08:13.917Z,59.78
2019-05-19T08:10:43.351Z,58.72
2019-05-19T08:13:13.023Z,58.69
2019-05-19T08:15:43.175Z,57.31
2019-05-19T08:18:12.682Z,58.23
2019-05-19T08:20:42.272Z,56.40
2019-05-19T08:23:11.915Z,55.31
2019-05-19T08:25:41.904Z,54.60
2019-05-19T08:28:14.214Z,52.28
2019-05-19T08:30:44.311Z,51.84
2019-05-19T08:33:14.120Z,51.87
2019-05-19T08:35:43.724Z,50.96
2019-05-19T08:38:13.835Z,50.35
2019-05-19T08:40:43.720Z,50.24
2019-05-19T08:43:13.376Z,50.27
2019-05-19T08:45:43.022Z,47.95
2019-05-19T08:48:12.599Z,47.29
2019-05-19T08:50:42.024Z,46.98
2019-05-19T08:53:11.524Z,47.45
2019-05-19T08:55:41.164Z,47.02
2019-05-19T08:58:11.160Z,47.72
2019-05-19T09:00:40.963Z,47.51
2019-05-19T09:03:11.901Z,46.12
2019-05-19T09:05:41.297Z,47.35
2019-05-19T09:08:10.685Z,46.79
2019-05-19T09:10:40.661Z,46.79
2019-05-19T09:13:10.504Z,46.54
2019-05-19T09:15:40.125Z,47.44
2019-05-19T09:18:09.769Z,45.89
2019-05-19T09:20:39.331Z,45.37
2019-05-19T09:23:08.957Z,43.81
2019-05-19T09:25:38.746Z,44.47
2019-05-19T09:28:08.348Z,44.24
2019-05-19T09:30:37.966Z,45.27
2019-05-19T09:33:07.649Z,45.16
2019-05-19T09:35:37.207Z,43.66
2019-05-19T09:38:06.747Z,43.65
2019-05-19T09:40:37.595Z,43.71
2019-05-19T09:43:07.098Z,44.96
2019-05-19T09:45:36.833Z,43.82
2019-05-19T09:48:06.396Z,43.43
2019-05-19T09:50:35.844Z,44.90
2019-05-19T09:53:05.313Z,44.12
2019-05-19T09:55:34.689Z,44.71
2019-05-19T09:58:04.088Z,43.59
2019-05-19T10:00:33.569Z,42.65
2019-05-19T10:03:03.300Z,42.73
2019-05-19T10:05:33.054Z,42.37
2019-05-19T10:08:02.591Z,42.29
2019-05-19T10:11:13.676Z,43.91
2019-05-19T10:13:43.230Z,42.90
2019-05-19T10:16:12.698Z,43.76
2019-05-19T10:18:42.101Z,42.27
2019-05-19T10:21:11.519Z,41.91
2019-05-19T10:23:40.921Z,41.86
2019-05-19T10:26:10.658Z,41.25
2019-05-19T10:28:40.116Z,43.71
2019-05-19T10:31:10.035Z,44.50
2019-05-19T10:33:39.419Z,44.13
2019-05-19T10:36:08.818Z,44.82
2019-05-19T10:38:38.188Z,44.48
2019-05-19T10:41:07.583Z,42.85
2019-05-19T10:43:37.011Z,42.26
2019-05-19T10:46:06.797Z,42.92
2019-05-19T10:48:36.235Z,44.29
2019-05-19T10:51:05.983Z,42.82
2019-05-19T10:53:35.434Z,44.52
2019-05-19T10:56:04.799Z,41.83
2019-05-19T10:58:34.230Z,41.87
2019-05-19T11:01:03.894Z,42.67
2019-05-19T11:03:33.514Z,40.32
2019-05-19T11:06:03.129Z,40.38
2019-05-19T11:08:32.596Z,40.78
2019-05-19T11:11:01.981Z,39.71
2019-05-19T11:13:31.445Z,39.85
2019-05-19T11:16:01.152Z,39.99
2019-05-19T11:18:30.866Z,40.54
2019-05-19T11:21:00.591Z,40.65
2019-05-19T11:23:30.347Z,40.88
2019-05-19T11:25:59.759Z,42.01
2019-05-19T11:28:29.310Z,41.45
2019-05-19T11:30:58.754Z,40.93
2019-05-19T11:33:28.430Z,41.65
2019-05-19T11:35:57.845Z,42.45
2019-05-19T11:38:27.407Z,40.61
2019-05-19T11:40:56.993Z,39.14
2019-05-19T11:43:26.551Z,39.59
2019-05-19T11:45:56.321Z,39.51
2019-05-19T11:48:25.867Z,40.30
2019-05-19T11:50:55.621Z,40.84
2019-05-19T11:53:25.133Z,41.07
2019-05-19T11:56:06.360Z,42.68
2019-05-19T11:58:26.708Z,41.89
2019-05-19T12:00:56.474Z,43.13
2019-05-19T12:03:26.430Z,43.05
2019-05-19T12:05:56.062Z,45.64
2019-05-19T12:08:25.742Z,46.94
2019-05-19T12:10:55.455Z,47.05
2019-05-19T12:13:25.222Z,46.19
2019-05-19T12:15:54.869Z,44.39
2019-05-19T12:18:24.796Z,44.96
2019-05-19T12:20:54.741Z,44.57
2019-05-19T12:23:24.451Z,44.52
2019-05-19T12:25:54.263Z,44.91
2019-05-19T12:28:23.973Z,41.36
2019-05-19T12:30:53.881Z,41.05
2019-05-19T12:33:23.770Z,39.90
2019-05-19T12:35:53.394Z,40.23
2019-05-19T12:38:23.512Z,42.89
2019-05-19T12:40:53.149Z,38.90
2019-05-19T12:43:22.736Z,36.81
2019-05-19T12:45:52.715Z,36.58
2019-05-19T12:48:22.608Z,37.04
2019-05-19T12:50:52.526Z,36.74
2019-05-19T12:53:22.557Z,36.65
2019-05-19T12:55:52.414Z,35.52
2019-05-19T12:58:22.508Z,32.84
2019-05-19T13:00:52.246Z,32.90
2019-05-19T13:03:21.952Z,33.77
2019-05-19T13:05:51.406Z,33.01
2019-05-19T13:08:20.778Z,29.37
2019-05-19T13:10:50.284Z,30.08
2019-05-19T13:13:19.697Z,28.17
2019-05-19T13:15:49.142Z,27.49
2019-05-19T13:18:18.554Z,25.59
2019-05-19T13:20:47.909Z,25.68
2019-05-19T13:23:17.342Z,25.51
2019-05-19T13:25:46.697Z,23.96
2019-05-19T13:28:16.826Z,22.55
2019-05-19T13:30:46.196Z,22.10
2019-05-19T13:33:15.785Z,23.39
2019-05-19T13:35:45.156Z,24.52
2019-05-19T13:38:14.576Z,25.72
2019-05-19T13:40:44.013Z,24.05
2019-05-19T13:43:13.649Z,24.32
2019-05-19T13:45:43.153Z,24.93
2019-05-19T13:48:12.954Z,27.11
2019-05-19T13:50:42.447Z,25.26
2019-05-19T13:53:11.984Z,25.90
2019-05-19T13:55:41.872Z,27.66
2019-05-19T13:58:11.339Z,28.84
2019-05-19T14:00:40.886Z,30.85
2019-05-19T14:03:10.407Z,31.30
2019-05-19T14:05:39.882Z,32.84
2019-05-19T14:08:09.475Z,33.47
2019-05-19T14:10:39.080Z,33.42
2019-05-19T14:13:08.527Z,33.10
2019-05-19T14:15:37.949Z,34.30
2019-05-19T14:18:07.435Z,34.79
2019-05-19T14:20:36.953Z,34.48
2019-05-19T14:23:07.019Z,34.41
2019-05-19T14:25:37.028Z,34.74
2019-05-19T14:28:06.647Z,35.30
2019-05-19T14:30:36.652Z,34.29
2019-05-19T14:33:06.024Z,34.66
2019-05-19T14:35:35.828Z,34.79
2019-05-19T14:38:05.545Z,34.31
2019-05-19T14:40:35.730Z,34.65
2019-05-19T14:43:05.592Z,34.06
2019-05-19T14:45:35.311Z,34.09
2019-05-19T14:48:05.192Z,33.75
2019-05-19T14:50:35.472Z,35.10
2019-05-19T14:53:04.860Z,33.75
2019-05-19T14:55:34.314Z,35.11
2019-05-19T14:58:03.681Z,33.86
2019-05-19T15:00:33.199Z,31.76
2019-05-19T15:03:02.646Z,31.32
2019-05-19T15:05:32.068Z,31.46
2019-05-19T15:08:01.464Z,29.23
2019-05-19T15:10:30.918Z,29.48
2019-05-19T15:13:00.252Z,29.98
2019-05-19T15:15:29.713Z,29.79
2019-05-19T15:17:59.126Z,30.21
2019-05-19T15:20:28.524Z,30.64
2019-05-19T15:22:57.901Z,30.57
2019-05-19T15:25:27.379Z,31.22
2019-05-19T15:28:00.617Z,31.55
2019-05-19T15:30:27.927Z,33.09
2019-05-19T15:32:57.322Z,33.03
2019-05-19T15:35:27.683Z,33.22
2019-05-19T15:37:57.177Z,31.88
2019-05-19T15:40:26.571Z,32.46
2019-05-19T15:42:55.972Z,32.24
2019-05-19T15:45:25.369Z,32.98
2019-05-19T15:47:54.842Z,33.67
2019-05-19T15:50:24.160Z,34.18
2019-05-19T15:52:53.562Z,34.15
2019-05-19T15:55:23.219Z,33.41
2019-05-19T15:57:52.795Z,33.11
2019-05-19T16:00:23.464Z,33.43
2019-05-19T16:02:52.824Z,33.89
2019-05-19T16:05:22.267Z,33.72
2019-05-19T16:07:51.653Z,31.64
2019-05-19T16:10:21.299Z,30.43
2019-05-19T16:12:50.676Z,31.88
2019-05-19T16:15:20.379Z,30.97
2019-05-19T16:17:49.929Z,31.42
2019-05-19T16:20:19.519Z,32.94
2019-05-19T16:22:49.187Z,33.70
2019-05-19T16:25:19.152Z,34.18
2019-05-19T16:27:50.918Z,35.91
2019-05-19T16:30:21.086Z,34.74
2019-05-19T16:32:50.988Z,35.91
2019-05-19T16:35:20.927Z,35.96
2019-05-19T16:37:50.435Z,35.95
2019-05-19T16:40:20.754Z,36.63
2019-05-19T16:42:50.535Z,36.69
2019-05-19T16:45:20.787Z,36.07
2019-05-19T16:47:50.716Z,36.84
2019-05-19T16:50:21.231Z,39.88
2019-05-19T16:52:51.280Z,42.41
2019-05-19T16:55:28.513Z,40.14
2019-05-19T16:57:58.472Z,45.65
2019-05-19T17:00:29.349Z,42.41
2019-05-19T17:02:59.543Z,39.27
2019-05-19T17:05:29.597Z,44.49
2019-05-19T17:07:59.644Z,43.59
2019-05-19T17:10:29.394Z,47.06
2019-05-19T17:12:59.452Z,44.75
2019-05-19T17:15:29.099Z,44.86
2019-05-19T17:17:58.803Z,44.62
2019-05-19T17:20:30.801Z,45.74
2019-05-19T17:23:00.110Z,47.37
2019-05-19T17:25:30.305Z,49.84
2019-05-19T17:28:00.131Z,51.39
2019-05-19T17:30:29.944Z,49.20
2019-05-19T17:32:59.995Z,49.66
2019-05-19T17:35:29.725Z,49.59
2019-05-19T17:37:59.427Z,51.77
2019-05-19T17:40:29.522Z,48.58
2019-05-19T17:42:59.334Z,48.09
2019-05-19T17:45:29.550Z,46.18
2019-05-19T17:48:09.752Z,44.97
2019-05-19T17:50:35.020Z,43.36
2019-05-19T17:53:05.381Z,41.30
2019-05-19T17:55:36.176Z,44.82
2019-05-19T17:58:06.348Z,45.80
2019-05-19T18:00:40.425Z,46.51
2019-05-19T18:03:10.747Z,47.22
2019-05-19T18:05:40.933Z,46.76
2019-05-19T18:08:10.958Z,47.37
2019-05-19T18:10:40.626Z,47.00
2019-05-19T18:13:10.376Z,47.39
2019-05-19T18:15:40.430Z,47.02
2019-05-19T18:18:10.221Z,47.99
2019-05-19T18:20:40.099Z,48.74
2019-05-19T18:23:10.004Z,49.42
2019-05-19T18:25:39.590Z,50.11
2019-05-19T18:28:09.288Z,51.22
2019-05-19T18:30:39.232Z,50.77
2019-05-19T18:33:08.949Z,51.14
2019-05-19T18:35:38.520Z,53.45
2019-05-19T18:38:08.194Z,59.40
2019-05-19T18:40:38.153Z,59.89
2019-05-19T18:43:07.648Z,63.29
2019-05-19T18:45:37.429Z,67.62
2019-05-19T18:48:07.043Z,66.10
2019-05-19T18:50:36.911Z,73.90
2019-05-19T18:53:06.673Z,73.50
2019-05-19T18:55:36.504Z,75.01
2019-05-19T18:58:06.153Z,75.74
2019-05-19T19:00:37.619Z,77.06
2019-05-19T19:03:07.741Z,77.94
2019-05-19T19:05:37.334Z,78.10
2019-05-19T19:08:07.183Z,77.52
2019-05-19T19:10:36.815Z,79.95
2019-05-19T19:13:06.568Z,81.89
2019-05-19T19:15:36.480Z,76.29
2019-05-19T19:18:06.844Z,77.02
2019-05-19T19:20:36.958Z,74.99
2019-05-19T19:23:06.731Z,75.76
2019-05-19T19:25:36.393Z,75.92
2019-05-19T19:28:06.147Z,78.15
2019-05-19T19:30:36.073Z,75.72
2019-05-19T19:33:06.012Z,76.79
2019-05-19T19:35:39.319Z,77.20
2019-05-19T19:38:07.689Z,76.62
2019-05-19T19:40:37.317Z,75.93
2019-05-19T19:43:07.589Z,75.04
2019-05-19T19:45:37.453Z,75.57
2019-05-19T19:48:07.748Z,75.28
2019-05-19T19:50:37.603Z,76.11
2019-05-19T19:53:07.626Z,75.24
2019-05-19T19:55:37.512Z,75.97
2019-05-19T19:58:07.294Z,76.76
2019-05-19T20:00:42.211Z,78.69
2019-05-19T20:03:12.731Z,77.51
2019-05-19T20:05:42.673Z,75.40
2019-05-19T20:08:12.479Z,75.34
2019-05-19T20:10:41.935Z,73.54
2019-05-19T20:13:11.759Z,75.66
2019-05-19T20:15:41.221Z,78.35
2019-05-19T20:18:11.118Z,76.43
2019-05-19T20:20:40.572Z,76.79
2019-05-19T20:23:10.490Z,76.00
2019-05-19T20:25:39.913Z,76.27
2019-05-19T20:28:09.257Z,76.18
2019-05-19T20:30:38.740Z,78.93
2019-05-19T20:33:08.122Z,79.03
2019-05-19T20:35:37.528Z,79.61
2019-05-19T20:38:06.907Z,80.90
2019-05-19T20:40:36.302Z,81.60
2019-05-19T20:43:05.908Z,81.67
2019-05-19T20:45:35.312Z,82.62
2019-05-19T20:48:04.834Z,83.07
2019-05-19T20:50:34.242Z,83.65
2019-05-19T20:53:03.615Z,83.69
2019-05-19T20:55:33.009Z,84.28
2019-05-19T20:58:02.385Z,84.74
2019-05-19T21:00:31.894Z,85.22
2019-05-19T21:03:01.274Z,85.34
2019-05-19T21:05:30.666Z,84.43
2019-05-19T21:08:00.083Z,84.45
2019-05-19T21:10:29.452Z,85.29
2019-05-19T21:12:58.860Z,85.79
2019-05-19T21:15:28.252Z,86.26
2019-05-19T21:17:57.657Z,86.07
2019-05-19T21:20:27.029Z,86.46
2019-05-19T21:22:56.506Z,86.62
2019-05-19T21:25:25.872Z,86.99
2019-05-19T21:27:55.281Z,87.57
2019-05-19T21:30:24.658Z,87.75
2019-05-19T21:32:54.037Z,88.00
2019-05-19T21:35:23.443Z,86.16
2019-05-19T21:37:52.868Z,83.62
2019-05-19T21:40:22.266Z,84.58
2019-05-19T21:42:51.740Z,85.05
2019-05-19T21:45:21.169Z,82.13
2019-05-19T21:47:50.553Z,82.39
2019-05-19T21:50:19.958Z,81.19
2019-05-19T21:52:49.351Z,82.22
2019-05-19T21:55:18.745Z,81.96
2019-05-19T21:57:48.125Z,80.47
2019-05-19T22:00:21.072Z,81.07
2019-05-19T22:02:50.452Z,81.83
2019-05-19T22:05:19.846Z,82.40
2019-05-19T22:08:17.532Z,83.53
2019-05-19T22:10:46.951Z,85.24
2019-05-19T22:13:16.542Z,85.78
2019-05-19T22:15:45.933Z,84.58
2019-05-19T22:18:15.338Z,84.57
2019-05-19T22:20:44.853Z,82.98
2019-05-19T22:23:14.452Z,83.76
2019-05-19T22:25:43.826Z,81.11
2019-05-19T22:28:13.225Z,81.02
2019-05-19T22:30:42.610Z,81.59
2019-05-19T22:33:12.013Z,81.27
2019-05-19T22:35:41.416Z,82.68
2019-05-19T22:38:10.843Z,82.66
2019-05-19T22:40:40.232Z,82.32
2019-05-19T22:43:09.647Z,82.31
2019-05-19T22:45:39.020Z,82.81
2019-05-19T22:48:08.518Z,83.09
2019-05-19T22:50:37.946Z,83.35
2019-05-19T22:53:07.329Z,84.00
2019-05-19T22:55:36.722Z,84.85
2019-05-19T22:58:06.216Z,85.59
2019-05-19T23:00:35.619Z,86.35
2019-05-19T23:03:04.999Z,87.09
2019-05-19T23:05:34.403Z,87.29
2019-05-19T23:08:03.976Z,87.02
2019-05-19T23:10:33.363Z,87.49
2019-05-19T23:13:02.740Z,86.44
2019-05-19T23:15:32.145Z,85.37
2019-05-19T23:18:01.553Z,84.72
2019-05-19T23:20:30.965Z,84.20
2019-05-19T23:23:00.638Z,84.86
2019-05-19T23:25:30.019Z,85.47
2019-05-19T23:27:59.556Z,86.12
2019-05-19T23:30:28.945Z,85.50
2019-05-19T23:32:58.339Z,86.18
2019-05-19T23:35:27.720Z,86.54
2019-05-19T23:37:57.147Z,87.27
2019-05-19T23:40:26.589Z,87.61
2019-05-19T23:42:56.030Z,87.52
2019-05-19T23:45:25.390Z,87.88
2019-05-19T23:47:54.760Z,87.92
2019-05-19T23:50:24.169Z,87.97
2019-05-19T23:52:53.554Z,87.82
2019-05-19T23:55:22.956Z,87.73
2019-05-19T23:57:52.367Z,87.84
